sensor_id;sensor_type;location;lat;lon;timestamp;P1;durP1;ratioP1;P2;durP2;ratioP2
3369;SDS011;42042;51.948;7.628;2023-08-08T00:01:03;4.87;;;4.40;;
3369;SDS011;42042;51.948;7.628;2023-08-08T00:03:30;5.83;;;4.97;;
3369;SDS011;42042;51.948;7.628;2023-08-08T00:05:58;11.90;;;4.83;;
3369;SDS011;42042;51.948;7.628;2023-08-08T00:08:26;5.00;;;4.50;;
3369;SDS011;42042;51.948;7.628;2023-08-08T00:10:53;4.80;;;4.30;;
3369;SDS011;42042;51.948;7.628;2023-08-08T00:13:21;8.00;;;4.60;;
3369;SDS011;42042;51.948;7.628;2023-08-08T00:15:48;5.50;;;4.00;;
3369;SDS011;42042;51.948;7.628;2023-08-08T00:18:15;6.37;;;4.73;;
3369;SDS011;42042;51.948;7.628;2023-08-08T00:20:42;5.80;;;4.33;;
3369;SDS011;42042;51.948;7.628;2023-08-08T00:23:10;4.90;;;4.50;;
3369;SDS011;42042;51.948;7.628;2023-08-08T00:25:38;6.43;;;4.60;;
3369;SDS011;42042;51.948;7.628;2023-08-08T00:28:06;5.97;;;4.40;;
3369;SDS011;42042;51.948;7.628;2023-08-08T00:30:33;5.47;;;4.50;;
3369;SDS011;42042;51.948;7.628;2023-08-08T00:33:00;8.07;;;4.33;;
3369;SDS011;42042;51.948;7.628;2023-08-08T00:35:27;5.77;;;5.13;;
3369;SDS011;42042;51.948;7.628;2023-08-08T00:37:55;5.43;;;4.57;;
3369;SDS011;42042;51.948;7.628;2023-08-08T00:40:22;6.80;;;5.00;;
3369;SDS011;42042;51.948;7.628;2023-08-08T00:42:50;6.30;;;4.40;;
3369;SDS011;42042;51.948;7.628;2023-08-08T00:45:17;4.47;;;3.93;;
3369;SDS011;42042;51.948;7.628;2023-08-08T00:47:45;6.80;;;4.10;;
3369;SDS011;42042;51.948;7.628;2023-08-08T00:50:12;4.30;;;3.90;;
3369;SDS011;42042;51.948;7.628;2023-08-08T00:52:39;6.30;;;4.17;;
3369;SDS011;42042;51.948;7.628;2023-08-08T00:55:07;5.07;;;4.40;;
3369;SDS011;42042;51.948;7.628;2023-08-08T00:57:34;4.43;;;4.03;;
3369;SDS011;42042;51.948;7.628;2023-08-08T01:00:06;5.07;;;4.57;;
3369;SDS011;42042;51.948;7.628;2023-08-08T01:02:34;6.60;;;3.33;;
3369;SDS011;42042;51.948;7.628;2023-08-08T01:05:02;9.63;;;4.07;;
3369;SDS011;42042;51.948;7.628;2023-08-08T01:07:33;8.50;;;4.90;;
3369;SDS011;42042;51.948;7.628;2023-08-08T01:10:04;5.83;;;4.30;;
3369;SDS011;42042;51.948;7.628;2023-08-08T01:12:33;5.20;;;4.67;;
3369;SDS011;42042;51.948;7.628;2023-08-08T01:15:02;4.33;;;3.37;;
3369;SDS011;42042;51.948;7.628;2023-08-08T01:17:32;7.43;;;4.73;;
3369;SDS011;42042;51.948;7.628;2023-08-08T01:20:00;5.50;;;4.53;;
3369;SDS011;42042;51.948;7.628;2023-08-08T01:22:30;5.27;;;4.70;;
3369;SDS011;42042;51.948;7.628;2023-08-08T01:25:01;5.23;;;4.20;;
3369;SDS011;42042;51.948;7.628;2023-08-08T01:27:28;4.73;;;4.00;;
3369;SDS011;42042;51.948;7.628;2023-08-08T01:29:56;4.20;;;3.80;;
3369;SDS011;42042;51.948;7.628;2023-08-08T01:32:23;6.57;;;3.70;;
3369;SDS011;42042;51.948;7.628;2023-08-08T01:34:50;4.20;;;3.80;;
3369;SDS011;42042;51.948;7.628;2023-08-08T01:37:19;3.60;;;3.27;;
3369;SDS011;42042;51.948;7.628;2023-08-08T01:39:47;6.13;;;4.80;;
3369;SDS011;42042;51.948;7.628;2023-08-08T01:42:17;5.53;;;4.07;;
3369;SDS011;42042;51.948;7.628;2023-08-08T01:44:45;4.93;;;4.10;;
3369;SDS011;42042;51.948;7.628;2023-08-08T01:47:12;4.43;;;4.03;;
3369;SDS011;42042;51.948;7.628;2023-08-08T01:49:40;4.10;;;3.70;;
3369;SDS011;42042;51.948;7.628;2023-08-08T01:52:07;4.37;;;3.97;;
3369;SDS011;42042;51.948;7.628;2023-08-08T01:54:34;3.73;;;3.43;;
3369;SDS011;42042;51.948;7.628;2023-08-08T01:57:01;4.93;;;4.00;;
3369;SDS011;42042;51.948;7.628;2023-08-08T01:59:30;3.73;;;3.43;;
3369;SDS011;42042;51.948;7.628;2023-08-08T02:01:57;5.63;;;4.47;;
3369;SDS011;42042;51.948;7.628;2023-08-08T02:04:24;5.63;;;5.07;;
3369;SDS011;42042;51.948;7.628;2023-08-08T02:06:51;5.13;;;4.60;;
3369;SDS011;42042;51.948;7.628;2023-08-08T02:09:19;7.27;;;4.97;;
3369;SDS011;42042;51.948;7.628;2023-08-08T02:11:46;8.67;;;5.03;;
3369;SDS011;42042;51.948;7.628;2023-08-08T02:14:13;6.27;;;5.77;;
3369;SDS011;42042;51.948;7.628;2023-08-08T02:16:41;13.40;;;7.23;;
3369;SDS011;42042;51.948;7.628;2023-08-08T02:19:09;6.73;;;5.80;;
3369;SDS011;42042;51.948;7.628;2023-08-08T02:21:36;6.80;;;6.10;;
3369;SDS011;42042;51.948;7.628;2023-08-08T02:24:03;13.80;;;6.63;;
3369;SDS011;42042;51.948;7.628;2023-08-08T02:26:31;12.17;;;7.33;;
3369;SDS011;42042;51.948;7.628;2023-08-08T02:28:58;7.30;;;6.60;;
3369;SDS011;42042;51.948;7.628;2023-08-08T02:31:25;7.70;;;6.30;;
3369;SDS011;42042;51.948;7.628;2023-08-08T02:33:54;9.73;;;7.07;;
3369;SDS011;42042;51.948;7.628;2023-08-08T02:36:21;9.57;;;7.93;;
3369;SDS011;42042;51.948;7.628;2023-08-08T02:38:48;11.33;;;7.87;;
3369;SDS011;42042;51.948;7.628;2023-08-08T02:41:18;11.20;;;7.43;;
3369;SDS011;42042;51.948;7.628;2023-08-08T02:43:45;8.93;;;7.30;;
3369;SDS011;42042;51.948;7.628;2023-08-08T02:46:13;9.37;;;7.80;;
3369;SDS011;42042;51.948;7.628;2023-08-08T02:48:40;8.07;;;7.27;;
3369;SDS011;42042;51.948;7.628;2023-08-08T02:51:08;9.83;;;6.30;;
3369;SDS011;42042;51.948;7.628;2023-08-08T02:53:36;7.93;;;6.67;;
3369;SDS011;42042;51.948;7.628;2023-08-08T02:56:03;8.00;;;6.70;;
3369;SDS011;42042;51.948;7.628;2023-08-08T02:58:30;9.20;;;6.90;;
3369;SDS011;42042;51.948;7.628;2023-08-08T03:00:57;8.17;;;7.17;;
3369;SDS011;42042;51.948;7.628;2023-08-08T03:03:24;8.43;;;6.63;;
3369;SDS011;42042;51.948;7.628;2023-08-08T03:05:52;8.83;;;6.80;;
3369;SDS011;42042;51.948;7.628;2023-08-08T03:08:20;10.70;;;6.57;;
3369;SDS011;42042;51.948;7.628;2023-08-08T03:10:49;9.20;;;6.63;;
3369;SDS011;42042;51.948;7.628;2023-08-08T03:13:16;11.37;;;6.60;;
3369;SDS011;42042;51.948;7.628;2023-08-08T03:15:44;10.63;;;6.83;;
3369;SDS011;42042;51.948;7.628;2023-08-08T03:18:12;11.37;;;6.73;;
3369;SDS011;42042;51.948;7.628;2023-08-08T03:20:39;10.33;;;7.23;;
3369;SDS011;42042;51.948;7.628;2023-08-08T03:23:06;8.10;;;6.93;;
3369;SDS011;42042;51.948;7.628;2023-08-08T03:25:35;9.90;;;7.97;;
3369;SDS011;42042;51.948;7.628;2023-08-08T03:28:02;8.80;;;7.93;;
3369;SDS011;42042;51.948;7.628;2023-08-08T03:30:30;11.33;;;7.47;;
3369;SDS011;42042;51.948;7.628;2023-08-08T03:32:57;10.00;;;7.43;;
3369;SDS011;42042;51.948;7.628;2023-08-08T03:35:24;9.13;;;7.30;;
3369;SDS011;42042;51.948;7.628;2023-08-08T03:37:52;9.90;;;8.20;;
3369;SDS011;42042;51.948;7.628;2023-08-08T03:40:19;9.73;;;6.77;;
3369;SDS011;42042;51.948;7.628;2023-08-08T03:42:48;10.40;;;7.57;;
3369;SDS011;42042;51.948;7.628;2023-08-08T03:45:15;9.27;;;7.37;;
3369;SDS011;42042;51.948;7.628;2023-08-08T03:47:42;11.00;;;8.30;;
3369;SDS011;42042;51.948;7.628;2023-08-08T03:50:11;9.20;;;7.10;;
3369;SDS011;42042;51.948;7.628;2023-08-08T03:52:38;11.03;;;7.47;;
3369;SDS011;42042;51.948;7.628;2023-08-08T03:55:05;10.67;;;7.53;;
3369;SDS011;42042;51.948;7.628;2023-08-08T03:57:33;11.50;;;8.67;;
3369;SDS011;42042;51.948;7.628;2023-08-08T04:00:02;12.50;;;7.43;;
3369;SDS011;42042;51.948;7.628;2023-08-08T04:02:29;8.20;;;7.40;;
3369;SDS011;42042;51.948;7.628;2023-08-08T04:04:56;9.83;;;7.90;;
3369;SDS011;42042;51.948;7.628;2023-08-08T04:07:24;12.47;;;8.17;;
3369;SDS011;42042;51.948;7.628;2023-08-08T04:09:51;12.60;;;7.33;;
3369;SDS011;42042;51.948;7.628;2023-08-08T04:12:18;8.93;;;7.13;;
3369;SDS011;42042;51.948;7.628;2023-08-08T04:14:45;9.57;;;6.30;;
3369;SDS011;42042;51.948;7.628;2023-08-08T04:17:14;11.63;;;7.47;;
3369;SDS011;42042;51.948;7.628;2023-08-08T04:19:41;10.50;;;7.30;;
3369;SDS011;42042;51.948;7.628;2023-08-08T04:22:08;9.73;;;8.20;;
3369;SDS011;42042;51.948;7.628;2023-08-08T04:24:36;10.43;;;8.20;;
3369;SDS011;42042;51.948;7.628;2023-08-08T04:27:04;11.83;;;6.97;;
3369;SDS011;42042;51.948;7.628;2023-08-08T04:29:31;12.90;;;8.47;;
3369;SDS011;42042;51.948;7.628;2023-08-08T04:31:59;11.20;;;8.20;;
3369;SDS011;42042;51.948;7.628;2023-08-08T04:34:27;11.43;;;8.20;;
3369;SDS011;42042;51.948;7.628;2023-08-08T04:36:55;11.97;;;8.13;;
3369;SDS011;42042;51.948;7.628;2023-08-08T04:39:22;13.70;;;7.80;;
3369;SDS011;42042;51.948;7.628;2023-08-08T04:41:49;9.43;;;6.57;;
3369;SDS011;42042;51.948;7.628;2023-08-08T04:44:16;9.30;;;7.13;;
3369;SDS011;42042;51.948;7.628;2023-08-08T04:46:44;10.90;;;6.87;;
3369;SDS011;42042;51.948;7.628;2023-08-08T04:49:11;11.67;;;7.80;;
3369;SDS011;42042;51.948;7.628;2023-08-08T04:51:39;9.30;;;7.97;;
3369;SDS011;42042;51.948;7.628;2023-08-08T04:54:07;10.70;;;7.60;;
3369;SDS011;42042;51.948;7.628;2023-08-08T04:56:34;8.97;;;7.60;;
3369;SDS011;42042;51.948;7.628;2023-08-08T04:59:01;7.80;;;6.90;;
3369;SDS011;42042;51.948;7.628;2023-08-08T05:01:28;10.33;;;6.90;;
3369;SDS011;42042;51.948;7.628;2023-08-08T05:03:56;12.70;;;7.17;;
3369;SDS011;42042;51.948;7.628;2023-08-08T05:06:23;9.50;;;7.00;;
3369;SDS011;42042;51.948;7.628;2023-08-08T05:08:52;11.20;;;6.20;;
3369;SDS011;42042;51.948;7.628;2023-08-08T05:11:19;10.87;;;6.57;;
3369;SDS011;42042;51.948;7.628;2023-08-08T05:13:46;11.77;;;6.93;;
3369;SDS011;42042;51.948;7.628;2023-08-08T05:16:14;8.87;;;7.03;;
3369;SDS011;42042;51.948;7.628;2023-08-08T05:18:41;11.13;;;9.93;;
3369;SDS011;42042;51.948;7.628;2023-08-08T05:21:09;8.70;;;7.33;;
3369;SDS011;42042;51.948;7.628;2023-08-08T05:23:36;13.83;;;7.77;;
3369;SDS011;42042;51.948;7.628;2023-08-08T05:26:05;13.43;;;7.77;;
3369;SDS011;42042;51.948;7.628;2023-08-08T05:28:32;12.43;;;8.27;;
3369;SDS011;42042;51.948;7.628;2023-08-08T05:30:59;13.40;;;7.77;;
3369;SDS011;42042;51.948;7.628;2023-08-08T05:33:27;9.13;;;7.40;;
3369;SDS011;42042;51.948;7.628;2023-08-08T05:35:54;11.17;;;7.80;;
3369;SDS011;42042;51.948;7.628;2023-08-08T05:38:21;10.73;;;7.70;;
3369;SDS011;42042;51.948;7.628;2023-08-08T05:40:49;11.30;;;8.40;;
3369;SDS011;42042;51.948;7.628;2023-08-08T05:43:17;11.27;;;8.57;;
3369;SDS011;42042;51.948;7.628;2023-08-08T05:45:46;13.23;;;9.13;;
3369;SDS011;42042;51.948;7.628;2023-08-08T05:48:14;14.87;;;9.30;;
3369;SDS011;42042;51.948;7.628;2023-08-08T05:50:41;13.37;;;9.93;;
3369;SDS011;42042;51.948;7.628;2023-08-08T05:53:08;15.90;;;10.60;;
3369;SDS011;42042;51.948;7.628;2023-08-08T05:55:36;16.57;;;11.33;;
3369;SDS011;42042;51.948;7.628;2023-08-08T05:58:03;18.30;;;11.73;;
3369;SDS011;42042;51.948;7.628;2023-08-08T06:00:32;18.90;;;12.63;;
3369;SDS011;42042;51.948;7.628;2023-08-08T06:03:00;19.80;;;13.00;;
3369;SDS011;42042;51.948;7.628;2023-08-08T06:05:27;22.43;;;12.10;;
3369;SDS011;42042;51.948;7.628;2023-08-08T06:07:54;18.03;;;14.43;;
3369;SDS011;42042;51.948;7.628;2023-08-08T06:10:21;22.80;;;11.50;;
3369;SDS011;42042;51.948;7.628;2023-08-08T06:12:50;15.83;;;13.87;;
3369;SDS011;42042;51.948;7.628;2023-08-08T06:15:17;21.60;;;13.90;;
3369;SDS011;42042;51.948;7.628;2023-08-08T06:17:46;17.27;;;13.10;;
3369;SDS011;42042;51.948;7.628;2023-08-08T06:20:13;22.70;;;15.23;;
3369;SDS011;42042;51.948;7.628;2023-08-08T06:22:41;20.23;;;14.30;;
3369;SDS011;42042;51.948;7.628;2023-08-08T06:25:08;17.50;;;12.10;;
3369;SDS011;42042;51.948;7.628;2023-08-08T06:27:36;17.40;;;14.60;;
3369;SDS011;42042;51.948;7.628;2023-08-08T06:30:03;18.60;;;12.97;;
3369;SDS011;42042;51.948;7.628;2023-08-08T06:32:31;21.63;;;15.20;;
3369;SDS011;42042;51.948;7.628;2023-08-08T06:34:59;24.90;;;14.67;;
3369;SDS011;42042;51.948;7.628;2023-08-08T06:37:26;27.03;;;15.13;;
3369;SDS011;42042;51.948;7.628;2023-08-08T06:39:54;15.67;;;13.47;;
3369;SDS011;42042;51.948;7.628;2023-08-08T06:42:21;18.77;;;14.60;;
3369;SDS011;42042;51.948;7.628;2023-08-08T06:44:48;17.33;;;14.40;;
3369;SDS011;42042;51.948;7.628;2023-08-08T06:47:15;18.73;;;14.90;;
3369;SDS011;42042;51.948;7.628;2023-08-08T06:49:42;18.47;;;14.60;;
3369;SDS011;42042;51.948;7.628;2023-08-08T06:52:11;17.43;;;13.60;;
3369;SDS011;42042;51.948;7.628;2023-08-08T06:54:38;19.77;;;14.53;;
3369;SDS011;42042;51.948;7.628;2023-08-08T06:57:05;16.83;;;13.50;;
3369;SDS011;42042;51.948;7.628;2023-08-08T06:59:32;24.30;;;15.33;;
3369;SDS011;42042;51.948;7.628;2023-08-08T07:02:00;14.10;;;12.60;;
3369;SDS011;42042;51.948;7.628;2023-08-08T07:04:27;18.63;;;15.03;;
3369;SDS011;42042;51.948;7.628;2023-08-08T07:06:54;21.87;;;14.53;;
3369;SDS011;42042;51.948;7.628;2023-08-08T07:09:23;20.97;;;14.20;;
3369;SDS011;42042;51.948;7.628;2023-08-08T07:11:50;15.00;;;13.40;;
3369;SDS011;42042;51.948;7.628;2023-08-08T07:14:18;18.03;;;13.67;;
3369;SDS011;42042;51.948;7.628;2023-08-08T07:16:45;20.97;;;14.60;;
3369;SDS011;42042;51.948;7.628;2023-08-08T07:19:13;18.30;;;14.50;;
3369;SDS011;42042;51.948;7.628;2023-08-08T07:21:40;17.47;;;14.00;;
3369;SDS011;42042;51.948;7.628;2023-08-08T07:24:08;13.77;;;12.37;;
3369;SDS011;42042;51.948;7.628;2023-08-08T07:26:37;30.40;;;15.27;;
3369;SDS011;42042;51.948;7.628;2023-08-08T07:29:04;17.67;;;13.50;;
3369;SDS011;42042;51.948;7.628;2023-08-08T07:31:31;17.87;;;14.33;;
3369;SDS011;42042;51.948;7.628;2023-08-08T07:33:59;24.73;;;14.00;;
3369;SDS011;42042;51.948;7.628;2023-08-08T07:36:26;16.63;;;12.20;;
3369;SDS011;42042;51.948;7.628;2023-08-08T07:38:53;17.90;;;14.00;;
3369;SDS011;42042;51.948;7.628;2023-08-08T07:41:24;17.33;;;13.33;;
3369;SDS011;42042;51.948;7.628;2023-08-08T07:43:53;21.23;;;13.73;;
3369;SDS011;42042;51.948;7.628;2023-08-08T07:46:20;21.43;;;14.53;;
3369;SDS011;42042;51.948;7.628;2023-08-08T07:48:47;13.83;;;12.33;;
3369;SDS011;42042;51.948;7.628;2023-08-08T07:51:14;14.63;;;13.07;;
3369;SDS011;42042;51.948;7.628;2023-08-08T07:53:42;20.30;;;13.90;;
3369;SDS011;42042;51.948;7.628;2023-08-08T07:56:09;19.80;;;15.20;;
3369;SDS011;42042;51.948;7.628;2023-08-08T07:58:36;25.57;;;15.07;;
3369;SDS011;42042;51.948;7.628;2023-08-08T08:01:05;20.10;;;15.40;;
3369;SDS011;42042;51.948;7.628;2023-08-08T08:03:32;23.37;;;17.30;;
3369;SDS011;42042;51.948;7.628;2023-08-08T08:05:59;16.87;;;15.00;;
3369;SDS011;42042;51.948;7.628;2023-08-08T08:08:27;25.83;;;14.37;;
3369;SDS011;42042;51.948;7.628;2023-08-08T08:10:54;20.00;;;13.00;;
3369;SDS011;42042;51.948;7.628;2023-08-08T08:13:21;20.30;;;15.13;;
3369;SDS011;42042;51.948;7.628;2023-08-08T08:15:48;16.37;;;14.60;;
3369;SDS011;42042;51.948;7.628;2023-08-08T08:18:17;19.30;;;15.07;;
3369;SDS011;42042;51.948;7.628;2023-08-08T08:20:45;16.47;;;13.67;;
3369;SDS011;42042;51.948;7.628;2023-08-08T08:23:12;17.20;;;15.37;;
3369;SDS011;42042;51.948;7.628;2023-08-08T08:25:39;19.90;;;15.37;;
3369;SDS011;42042;51.948;7.628;2023-08-08T08:28:06;20.57;;;15.00;;
3369;SDS011;42042;51.948;7.628;2023-08-08T08:30:34;19.27;;;14.60;;
3369;SDS011;42042;51.948;7.628;2023-08-08T08:33:02;14.57;;;10.43;;
3369;SDS011;42042;51.948;7.628;2023-08-08T08:35:34;14.17;;;10.40;;
3369;SDS011;42042;51.948;7.628;2023-08-08T08:38:01;14.60;;;9.50;;
3369;SDS011;42042;51.948;7.628;2023-08-08T08:40:29;14.10;;;9.90;;
3369;SDS011;42042;51.948;7.628;2023-08-08T08:42:56;11.50;;;10.33;;
3369;SDS011;42042;51.948;7.628;2023-08-08T08:45:24;14.43;;;10.97;;
3369;SDS011;42042;51.948;7.628;2023-08-08T08:47:52;10.43;;;9.33;;
3369;SDS011;42042;51.948;7.628;2023-08-08T08:50:22;10.20;;;8.30;;
3369;SDS011;42042;51.948;7.628;2023-08-08T08:52:51;16.63;;;8.00;;
3369;SDS011;42042;51.948;7.628;2023-08-08T08:55:20;8.63;;;6.93;;
3369;SDS011;42042;51.948;7.628;2023-08-08T08:57:48;9.10;;;5.70;;
3369;SDS011;42042;51.948;7.628;2023-08-08T09:00:16;11.67;;;6.13;;
3369;SDS011;42042;51.948;7.628;2023-08-08T09:02:43;7.90;;;7.10;;
3369;SDS011;42042;51.948;7.628;2023-08-08T09:05:12;6.33;;;4.20;;
3369;SDS011;42042;51.948;7.628;2023-08-08T09:07:40;4.07;;;3.77;;
3369;SDS011;42042;51.948;7.628;2023-08-08T09:10:09;10.93;;;4.17;;
3369;SDS011;42042;51.948;7.628;2023-08-08T09:12:36;8.73;;;3.27;;
3369;SDS011;42042;51.948;7.628;2023-08-08T09:15:03;4.90;;;3.20;;
3369;SDS011;42042;51.948;7.628;2023-08-08T09:17:31;6.40;;;3.47;;
3369;SDS011;42042;51.948;7.628;2023-08-08T09:19:58;8.43;;;3.73;;
3369;SDS011;42042;51.948;7.628;2023-08-08T09:22:26;3.33;;;2.67;;
3369;SDS011;42042;51.948;7.628;2023-08-08T09:24:54;6.90;;;2.50;;
3369;SDS011;42042;51.948;7.628;2023-08-08T09:27:23;3.50;;;2.63;;
3369;SDS011;42042;51.948;7.628;2023-08-08T09:29:50;3.97;;;2.87;;
3369;SDS011;42042;51.948;7.628;2023-08-08T09:32:17;9.53;;;2.63;;
3369;SDS011;42042;51.948;7.628;2023-08-08T09:34:45;5.80;;;3.07;;
3369;SDS011;42042;51.948;7.628;2023-08-08T09:37:12;4.53;;;3.47;;
3369;SDS011;42042;51.948;7.628;2023-08-08T09:39:40;2.40;;;2.20;;
3369;SDS011;42042;51.948;7.628;2023-08-08T09:42:07;6.60;;;2.37;;
3369;SDS011;42042;51.948;7.628;2023-08-08T09:44:38;4.80;;;2.67;;
3369;SDS011;42042;51.948;7.628;2023-08-08T09:47:05;3.80;;;2.80;;
3369;SDS011;42042;51.948;7.628;2023-08-08T09:49:32;4.73;;;2.60;;
3369;SDS011;42042;51.948;7.628;2023-08-08T09:52:01;7.17;;;2.60;;
3369;SDS011;42042;51.948;7.628;2023-08-08T09:54:29;4.13;;;2.40;;
3369;SDS011;42042;51.948;7.628;2023-08-08T09:56:57;3.37;;;2.97;;
3369;SDS011;42042;51.948;7.628;2023-08-08T09:59:25;4.10;;;1.90;;
3369;SDS011;42042;51.948;7.628;2023-08-08T10:01:54;4.73;;;2.20;;
3369;SDS011;42042;51.948;7.628;2023-08-08T10:04:23;2.73;;;2.10;;
3369;SDS011;42042;51.948;7.628;2023-08-08T10:06:51;3.20;;;2.30;;
3369;SDS011;42042;51.948;7.628;2023-08-08T10:09:18;2.90;;;2.20;;
3369;SDS011;42042;51.948;7.628;2023-08-08T10:11:46;2.97;;;1.87;;
3369;SDS011;42042;51.948;7.628;2023-08-08T10:14:14;3.57;;;2.00;;
3369;SDS011;42042;51.948;7.628;2023-08-08T10:16:41;4.30;;;1.90;;
3369;SDS011;42042;51.948;7.628;2023-08-08T10:19:11;2.33;;;1.83;;
3369;SDS011;42042;51.948;7.628;2023-08-08T10:21:41;5.00;;;1.70;;
3369;SDS011;42042;51.948;7.628;2023-08-08T10:24:09;6.70;;;2.77;;
3369;SDS011;42042;51.948;7.628;2023-08-08T10:26:50;2.90;;;1.50;;
3369;SDS011;42042;51.948;7.628;2023-08-08T10:29:18;2.37;;;1.80;;
3369;SDS011;42042;51.948;7.628;2023-08-08T10:31:50;3.13;;;1.63;;
3369;SDS011;42042;51.948;7.628;2023-08-08T10:34:19;5.23;;;1.97;;
3369;SDS011;42042;51.948;7.628;2023-08-08T10:36:50;5.40;;;1.80;;
3369;SDS011;42042;51.948;7.628;2023-08-08T10:39:17;1.87;;;1.53;;
3369;SDS011;42042;51.948;7.628;2023-08-08T10:41:46;1.60;;;1.50;;
3369;SDS011;42042;51.948;7.628;2023-08-08T10:44:20;2.33;;;1.50;;
3369;SDS011;42042;51.948;7.628;2023-08-08T10:46:48;4.07;;;2.20;;
3369;SDS011;42042;51.948;7.628;2023-08-08T10:49:16;2.73;;;1.90;;
3369;SDS011;42042;51.948;7.628;2023-08-08T10:51:45;5.73;;;1.50;;
3369;SDS011;42042;51.948;7.628;2023-08-08T10:54:13;1.97;;;1.77;;
3369;SDS011;42042;51.948;7.628;2023-08-08T10:56:41;2.17;;;1.83;;
3369;SDS011;42042;51.948;7.628;2023-08-08T10:59:14;1.80;;;1.60;;
3369;SDS011;42042;51.948;7.628;2023-08-08T11:01:42;2.60;;;1.50;;
3369;SDS011;42042;51.948;7.628;2023-08-08T11:04:11;3.00;;;2.03;;
3369;SDS011;42042;51.948;7.628;2023-08-08T11:06:39;3.00;;;1.70;;
3369;SDS011;42042;51.948;7.628;2023-08-08T11:09:07;3.90;;;1.87;;
3369;SDS011;42042;51.948;7.628;2023-08-08T11:11:38;5.43;;;1.90;;
3369;SDS011;42042;51.948;7.628;2023-08-08T11:16:43;2.50;;;1.73;;
3369;SDS011;42042;51.948;7.628;2023-08-08T11:19:11;6.07;;;1.60;;
3369;SDS011;42042;51.948;7.628;2023-08-08T11:21:40;2.70;;;1.70;;
3369;SDS011;42042;51.948;7.628;2023-08-08T11:24:09;1.87;;;1.43;;
3369;SDS011;42042;51.948;7.628;2023-08-08T11:26:37;1.70;;;1.60;;
3369;SDS011;42042;51.948;7.628;2023-08-08T11:29:05;3.10;;;1.50;;
3369;SDS011;42042;51.948;7.628;2023-08-08T11:31:33;1.63;;;1.37;;
3369;SDS011;42042;51.948;7.628;2023-08-08T11:34:00;2.40;;;1.37;;
3369;SDS011;42042;51.948;7.628;2023-08-08T11:36:28;4.00;;;1.70;;
3369;SDS011;42042;51.948;7.628;2023-08-08T11:38:56;1.73;;;1.50;;
3369;SDS011;42042;51.948;7.628;2023-08-08T11:41:25;2.00;;;1.80;;
3369;SDS011;42042;51.948;7.628;2023-08-08T11:43:53;2.17;;;1.70;;
3369;SDS011;42042;51.948;7.628;2023-08-08T11:46:22;2.50;;;1.87;;
3369;SDS011;42042;51.948;7.628;2023-08-08T11:48:50;2.90;;;1.40;;
3369;SDS011;42042;51.948;7.628;2023-08-08T11:51:17;1.80;;;1.70;;
3369;SDS011;42042;51.948;7.628;2023-08-08T11:53:48;2.03;;;1.83;;
3369;SDS011;42042;51.948;7.628;2023-08-08T11:56:17;2.23;;;1.70;;
3369;SDS011;42042;51.948;7.628;2023-08-08T11:58:45;1.67;;;1.57;;
3369;SDS011;42042;51.948;7.628;2023-08-08T12:01:13;2.23;;;1.33;;
3369;SDS011;42042;51.948;7.628;2023-08-08T12:03:40;1.50;;;1.40;;
3369;SDS011;42042;51.948;7.628;2023-08-08T12:06:13;1.70;;;1.60;;
3369;SDS011;42042;51.948;7.628;2023-08-08T12:08:41;2.93;;;2.07;;
3369;SDS011;42042;51.948;7.628;2023-08-08T12:11:09;2.77;;;2.07;;
3369;SDS011;42042;51.948;7.628;2023-08-08T12:13:37;4.23;;;1.70;;
3369;SDS011;42042;51.948;7.628;2023-08-08T12:16:07;1.47;;;1.37;;
3369;SDS011;42042;51.948;7.628;2023-08-08T12:18:35;1.60;;;1.50;;
3369;SDS011;42042;51.948;7.628;2023-08-08T12:21:03;1.50;;;1.37;;
3369;SDS011;42042;51.948;7.628;2023-08-08T12:23:31;3.00;;;1.30;;
3369;SDS011;42042;51.948;7.628;2023-08-08T12:25:58;5.33;;;1.70;;
3369;SDS011;42042;51.948;7.628;2023-08-08T12:28:26;7.30;;;1.60;;
3369;SDS011;42042;51.948;7.628;2023-08-08T12:30:53;4.87;;;2.40;;
3369;SDS011;42042;51.948;7.628;2023-08-08T12:33:21;1.80;;;1.70;;
3369;SDS011;42042;51.948;7.628;2023-08-08T12:35:49;6.93;;;1.90;;
3369;SDS011;42042;51.948;7.628;2023-08-08T12:38:16;2.40;;;1.83;;
3369;SDS011;42042;51.948;7.628;2023-08-08T12:40:44;2.50;;;1.37;;
3369;SDS011;42042;51.948;7.628;2023-08-08T12:43:11;4.37;;;1.60;;
3369;SDS011;42042;51.948;7.628;2023-08-08T12:45:42;1.30;;;1.20;;
3369;SDS011;42042;51.948;7.628;2023-08-08T12:48:10;1.60;;;1.50;;
3369;SDS011;42042;51.948;7.628;2023-08-08T12:50:38;1.57;;;1.20;;
3369;SDS011;42042;51.948;7.628;2023-08-08T12:53:06;2.47;;;1.57;;
3369;SDS011;42042;51.948;7.628;2023-08-08T12:55:33;1.40;;;1.30;;
3369;SDS011;42042;51.948;7.628;2023-08-08T12:58:02;1.40;;;1.30;;
3369;SDS011;42042;51.948;7.628;2023-08-08T13:00:30;3.10;;;1.90;;
3369;SDS011;42042;51.948;7.628;2023-08-08T13:02:57;2.50;;;1.67;;
3369;SDS011;42042;51.948;7.628;2023-08-08T13:05:25;3.60;;;1.70;;
3369;SDS011;42042;51.948;7.628;2023-08-08T13:07:54;1.30;;;1.20;;
3369;SDS011;42042;51.948;7.628;2023-08-08T13:10:22;2.90;;;1.57;;
3369;SDS011;42042;51.948;7.628;2023-08-08T13:12:49;3.00;;;1.70;;
3369;SDS011;42042;51.948;7.628;2023-08-08T13:15:16;1.90;;;1.70;;
3369;SDS011;42042;51.948;7.628;2023-08-08T13:17:44;3.13;;;1.30;;
3369;SDS011;42042;51.948;7.628;2023-08-08T13:20:11;2.60;;;1.73;;
3369;SDS011;42042;51.948;7.628;2023-08-08T13:22:39;2.03;;;1.30;;
3369;SDS011;42042;51.948;7.628;2023-08-08T13:25:09;2.80;;;1.80;;
3369;SDS011;42042;51.948;7.628;2023-08-08T13:27:36;1.50;;;1.40;;
3369;SDS011;42042;51.948;7.628;2023-08-08T13:30:03;1.60;;;1.50;;
3369;SDS011;42042;51.948;7.628;2023-08-08T13:32:31;4.37;;;1.43;;
3369;SDS011;42042;51.948;7.628;2023-08-08T13:34:58;1.40;;;1.30;;
3369;SDS011;42042;51.948;7.628;2023-08-08T13:37:26;2.30;;;1.53;;
3369;SDS011;42042;51.948;7.628;2023-08-08T13:39:53;2.60;;;1.50;;
3369;SDS011;42042;51.948;7.628;2023-08-08T13:42:21;1.40;;;1.30;;
3369;SDS011;42042;51.948;7.628;2023-08-08T13:44:49;1.87;;;1.40;;
3369;SDS011;42042;51.948;7.628;2023-08-08T13:47:16;1.47;;;1.37;;
3369;SDS011;42042;51.948;7.628;2023-08-08T13:49:43;3.80;;;1.27;;
3369;SDS011;42042;51.948;7.628;2023-08-08T13:52:10;1.57;;;1.47;;
3369;SDS011;42042;51.948;7.628;2023-08-08T13:54:38;2.50;;;1.40;;
3369;SDS011;42042;51.948;7.628;2023-08-08T13:57:05;2.37;;;1.60;;
3369;SDS011;42042;51.948;7.628;2023-08-08T13:59:33;6.70;;;1.50;;
3369;SDS011;42042;51.948;7.628;2023-08-08T14:02:01;1.13;;;1.10;;
3369;SDS011;42042;51.948;7.628;2023-08-08T14:04:28;8.10;;;1.40;;
3369;SDS011;42042;51.948;7.628;2023-08-08T14:06:55;1.67;;;1.30;;
3369;SDS011;42042;51.948;7.628;2023-08-08T14:09:22;1.73;;;1.63;;
3369;SDS011;42042;51.948;7.628;2023-08-08T14:11:49;3.20;;;1.57;;
3369;SDS011;42042;51.948;7.628;2023-08-08T14:14:16;1.40;;;1.30;;
3369;SDS011;42042;51.948;7.628;2023-08-08T14:16:45;2.20;;;1.70;;
3369;SDS011;42042;51.948;7.628;2023-08-08T14:19:12;2.03;;;1.60;;
3369;SDS011;42042;51.948;7.628;2023-08-08T14:21:41;1.83;;;1.50;;
3369;SDS011;42042;51.948;7.628;2023-08-08T14:24:08;1.87;;;1.70;;
3369;SDS011;42042;51.948;7.628;2023-08-08T14:26:35;1.53;;;1.37;;
3369;SDS011;42042;51.948;7.628;2023-08-08T14:29:02;3.10;;;1.47;;
3369;SDS011;42042;51.948;7.628;2023-08-08T14:31:30;1.40;;;1.30;;
3369;SDS011;42042;51.948;7.628;2023-08-08T14:36:31;5.70;;;1.80;;
3369;SDS011;42042;51.948;7.628;2023-08-08T14:38:59;4.80;;;2.10;;
3369;SDS011;42042;51.948;7.628;2023-08-08T14:41:26;3.60;;;1.87;;
3369;SDS011;42042;51.948;7.628;2023-08-08T14:43:53;1.97;;;1.77;;
3369;SDS011;42042;51.948;7.628;2023-08-08T14:46:20;2.37;;;2.03;;
3369;SDS011;42042;51.948;7.628;2023-08-08T14:48:47;2.17;;;1.70;;
3369;SDS011;42042;51.948;7.628;2023-08-08T14:51:14;2.93;;;2.20;;
3369;SDS011;42042;51.948;7.628;2023-08-08T14:53:45;3.33;;;2.03;;
3369;SDS011;42042;51.948;7.628;2023-08-08T14:56:13;4.30;;;1.80;;
3369;SDS011;42042;51.948;7.628;2023-08-08T14:58:40;4.73;;;2.10;;
3369;SDS011;42042;51.948;7.628;2023-08-08T15:01:07;1.97;;;1.60;;